hero-logo

Top 15 Knowers of ABT Abbott Laboratories - 2017-07-25

Rank Fund Result (K)
1 Green Valley Investors Llc $3,940
2 Samlyn Capital Llc $3,846
3 Loomis Sayles Co L P $2,762
4 Piedmont Investment Advisors Llc $2,163
5 California State Teachers Retirement System $2,124
6 Avalon Advisors Llc $1,876
7 Raymond James Associates $1,646
8 Senzar Asset Management Llc $1,143
9 Northwestern Mutual Investment Management Company Llc $1,081
10 Salzman Co Inc $1,032
11 Glen Harbor Capital Management Llc $1,019
12 Pura Vida Investments Llc $930
13 Meadow Creek Investment Management Llc $839
14 Stifel Financial Corp $787
15 Aperio Group Llc $685
Price Chart and News From Google Finance for ABT Abbott Laboratories
Owner Date Shares Change Price Change Result (K)
Access Financial Services Inc 2017-03-31 653 $6.00 $3
Acrospire Investment Management Llc 2017-03-31 -3,574 $6.00 $-21
Advantage Investment Management Llc 2017-03-31 543 $6.00 $3
Ae Wealth Management Llc 2017-03-31 5,883 $6.00 $35
Afam Capital Inc 2017-03-31 830 $6.00 $4
Ahl Partners Llp 2017-03-31 32,978 $6.00 $197
Aimz Investment Advisors Llc 2017-03-31 2 $6.00 $0
Allen Investment Management Llc 2017-03-31 0 $6.00 $0
Allsquare Wealth Management Llc 2017-03-31 0 $6.00 $0
Alpine Partners Vi Llc 2017-03-31 9,537 $6.00 $57
Amalgamated Bank 2017-03-31 23,978 $6.00 $143
Americafirst Capital Management Llc 2017-03-31 -45,066 $6.00 $-270
Ancora Advisors Llc 2017-03-31 -474 $6.00 $-2
Annex Advisory Services Llc 2017-03-31 -151 $6.00 $0
Aperio Group Llc 2017-03-31 114,280 $6.00 $685
Archford Capital Strategies Llc 2017-03-31 9,947 $6.00 $59
Arete Wealth Advisors Llc 2017-03-31 3,569 $6.00 $21
Argi Investment Services Llc 2017-03-31 -715 $6.00 $-4
Arrow Financial Corp 2017-03-31 1,987 $6.00 $11
A R T Advisors Llc 2017-03-31 -71,061 $6.00 $-426
Aspen Investment Management Inc 2017-03-31 6,745 $6.00 $40
Asset Management Group Inc 2017-03-31 186 $6.00 $1
Assetmark Inc 2017-03-31 1,847 $6.00 $11
Aureus Asset Management Llc 2017-03-31 643 $6.00 $3
Auxier Asset Management 2017-03-31 29,349 $6.00 $176
Avalon Advisors Llc 2017-03-31 312,747 $6.00 $1,876
Bahl Gaynor Inc 2017-03-31 -974,395 $6.00 $-5,846
Balentine Llc 2017-03-31 130 $6.00 $0
Barr E S Co 2017-03-31 145 $6.00 $0
Barrington Strategic Wealth Management Group Llc 2017-03-31 -550 $6.00 $-3
Beacon Financial Group 2017-06-30 -129 $4.20 $0
Beacon Trust Co 2017-03-31 -322 $6.00 $-1
Bell Bank 2017-03-31 -282 $6.00 $-1
Bienville Capital Management Llc 2017-03-31 4,940 $6.00 $29
Birmingham Capital Management Co Inc Al 2017-03-31 500 $6.00 $3
Blair William Co Il 2017-03-31 39,276 $6.00 $235
Bluefin Trading Llc 2017-03-31 -13,199 $6.00 $-79
Bokf Na 2017-03-31 -2,441 $6.00 $-14
Boston Private Wealth Llc 2017-03-31 -7,077 $6.00 $-42
Bowen Hanes Co Inc 2017-03-31 0 $6.00 $0
Bragg Financial Advisors Inc 2017-03-31 3,518 $6.00 $21
Brandywine Trust Co 2017-03-31 0 $6.00 $0
Brighton Jones Llc 2017-03-31 8,372 $6.00 $50
Brinker Capital Inc 2017-03-31 55,210 $6.00 $331
Broderick Brian C 2017-03-31 9,575 $6.00 $57
Brown Brothers Harriman Co 2017-03-31 -2,360 $6.00 $-14
B S Pension Fund Trustee Ltd Acting For The British Steel P 2017-03-31 -780 $6.00 $-4
California State Teachers Retirement System 2017-03-31 354,096 $6.00 $2,124
Camden National Bank 2017-03-31 1 $6.00 $0
Camg Solamere Management Llc 2017-03-31 -800 $6.00 $-4
Canal Insurance Co 2017-03-31 0 $6.00 $0
Canandaigua National Bank Trust Co 2017-03-31 910 $6.00 $5
Capital Guardian Trust Co 2017-03-31 218 $6.00 $1
Capstone Investment Advisors Llc 2017-03-31 -193,636 $6.00 $-1,161
Carlson Capital L P 2017-03-31 -106,697 $6.00 $-640
Catamount Wealth Management 2017-03-31 1,000 $6.00 $6
Cedar Wealth Management Llc 2017-03-31 0 $6.00 $0
Cetera Advisor Networks Llc 2017-03-31 3,830 $6.00 $22
Cetera Advisors Llc 2017-03-31 1,176 $6.00 $7
Cetera Investment Advisers 2017-03-31 618 $6.00 $3
Chartwell Investment Partners Llc 2017-03-31 91,110 $6.00 $546
Chelsea Counsel Co 2017-03-31 -990 $6.00 $-5
Chilton Investment Co Llc 2017-03-31 -26,832 $6.00 $-160
Cincinnati Financial Corp 2017-03-31 0 $6.00 $0
Cincinnati Insurance Co 2017-03-31 0 $6.00 $0
Cincinnati Specialty Underwriters Insurance Co 2017-03-31 0 $6.00 $0
Clear Perspective Advisors Llc 2017-03-31 -2,000 $6.00 $-12
Cna Financial Corp 2017-03-31 -13,875 $6.00 $-83
Compagnie Lombard Odier Scma 2017-03-31 -133,108 $6.00 $-798
Compton Capital Management Inc Ri 2017-03-31 6,716 $6.00 $40
Congress Asset Management Co Ma 2017-03-31 671 $6.00 $4
Cornerstone Capital Management Holdings Llc 2017-03-31 111,626 $6.00 $669
Covington Capital Management 2017-03-31 -66,803 $6.00 $-400
Crawford Investment Counsel Inc 2017-03-31 -25 $6.00 $0
Cs Mckee Lp 2017-03-31 -42,783 $6.00 $-256
Cypress Wealth Advisors Llc 2017-03-31 5,396 $6.00 $32
D A Davidson Co 2017-03-31 1,956 $6.00 $11
Davidson Investment Advisors 2017-03-31 -100 $6.00 $0
Delaney Dennis R 2017-03-31 -206 $6.00 $-1
Dempze Nancy E 2017-03-31 2,906 $6.00 $17
Denver Investment Advisors Llc 2017-03-31 10,474 $6.00 $62
Df Dent Co Inc 2017-03-31 0 $6.00 $0
Dixon Hubard Feinour Brown Inc Va 2017-03-31 -130 $6.00 $0
Dorazio Associates Inc 2017-03-31 87 $6.00 $0
Eagle Global Advisors Llc 2017-03-31 6,243 $6.00 $37
Earnest Partners Llc 2017-03-31 -745 $6.00 $-4
Edmond De Rothschild Holding S A 2017-03-31 -17,991 $6.00 $-107
Elco Management Co Llc 2017-03-31 0 $6.00 $0
Elefante Mark B 2017-03-31 1,980 $6.00 $11
Ellington Management Group Llc 2017-03-31 9,000 $6.00 $54
Endurant Capital Management Lp 2017-03-31 77,291 $6.00 $463
Envestnet Asset Management Inc 2017-03-31 28,057 $6.00 $168
Estabrook Capital Management 2017-03-31 -1,000 $6.00 $-6
Farmers National Bank 2017-03-31 52 $6.00 $0
Fayerweather Charles 2017-03-31 2,499 $6.00 $14
Fdx Advisors Inc 2017-03-31 22,908 $6.00 $137
Fernwood Investment Management Llc 2017-03-31 262 $6.00 $1
Fic Capital Inc 2017-03-31 0 $6.00 $0
Fiera Capital Corp 2017-03-31 4,593 $6.00 $27
First Foundation Advisors 2017-03-31 283 $6.00 $1
First Heartland Consultants Inc 2017-03-31 4,544 $6.00 $27
First Long Island Investors Llc 2017-03-31 28,815 $6.00 $172
First Republic Investment Management Inc 2017-03-31 36,545 $6.00 $219
First Wilshire Securities Management Inc 2017-03-31 4,568 $6.00 $27
Flagship Harbor Advisors Llc 2017-03-31 -121 $6.00 $0
Focused Wealth Management Inc 2017-03-31 -221 $6.00 $-1
Folger Hill Asset Management Lp 2017-03-31 -157,300 $6.00 $-943
Forbes J M Co Llp 2017-03-31 -485 $6.00 $-2
Franklin Parlapiano Turner Welch Llc 2017-03-31 0 $6.00 $0
Frontier Investment Mgmt Co 2017-03-31 494 $6.00 $2
Gardiner Nancy B 2017-03-31 1,195 $6.00 $7
Genesee Valley Trust Co 2017-03-31 567 $6.00 $3
Ghost Tree Capital Llc 2017-03-31 -400,000 $6.00 $-2,400
Girard Securities Inc 2017-03-31 -1,214 $6.00 $-7
Glassman Wealth Services 2017-03-31 -49 $6.00 $0
Glen Harbor Capital Management Llc 2017-03-31 169,864 $6.00 $1,019
Glg Llc 2017-03-31 74,732 $6.00 $448
Glg Partners Lp 2017-03-31 162 $6.00 $0
Gotham Asset Management Llc 2017-03-31 -610,673 $6.00 $-3,664
Gratus Capital Llc 2017-03-31 37,501 $6.00 $225
Green Valley Investors Llc 2017-03-31 656,697 $6.00 $3,940
Group One Trading L P 2017-03-31 -101,596 $6.00 $-609
Gsa Capital Partners Llp 2017-03-31 11,441 $6.00 $68
Gsb Wealth Management Llc 2017-03-31 0 $6.00 $0
Guggenheim Capital Llc 2017-03-31 -37,482 $6.00 $-224
Halsey Associates Inc Ct 2017-03-31 0 $6.00 $0
Hamel Associates Inc 2017-03-31 6,775 $6.00 $40
Hanson Doremus Investment Management 2017-03-31 125 $6.00 $0
Hbk Sorce Advisory Llc 2017-03-31 2,447 $6.00 $14
Hendley Co Inc 2017-03-31 -2,530 $6.00 $-15
Heritage Way Advisors Llc 2017-03-31 785 $6.00 $4
Highbridge Capital Management Llc 2017-03-31 21,796 $6.00 $130
Hikari Tsushin Inc 2017-03-31 0 $6.00 $0
Hollow Brook Wealth Management Llc 2017-03-31 -6,415 $6.00 $-38
Holt Capital Advisors L L C Dba Holt Capital Partners L P 2017-03-31 -195 $6.00 $-1
Horizon Kinetics Llc 2017-03-31 1,200 $6.00 $7
Hrs Investment Holdings Llc 2017-03-31 0 $6.00 $0
Hutchin Hill Capital Lp 2017-03-31 -168,600 $6.00 $-1,011
Hutner Capital Management Inc 2017-03-31 1,677 $6.00 $10
Ibex Wealth Advisors 2017-03-31 0 $6.00 $0
Ifp Advisors Inc 2017-03-31 8,581 $6.00 $51
Iguana Healthcare Management Llc 2017-03-31 -45,000 $6.00 $-270
Iht Wealth Management Llc 2017-03-31 499 $6.00 $2
Intact Investment Management Inc 2017-03-31 -1,900 $6.00 $-11
Intellectus Partners Llc 2017-03-31 0 $6.00 $0
Invictus Rg 2017-03-31 -2,868 $6.00 $-17
Ironsides Asset Advisors Llc 2017-03-31 -38,077 $6.00 $-228
Israel Discount Bank Of New York 2017-03-31 4,983 $6.00 $29
Itau Unibanco Holding S A 2017-03-31 712 $6.00 $4
Jackson Grant Investment Advisers Inc 2017-03-31 -1,364 $6.00 $-8
Jane Street Group Llc 2017-03-31 11,431 $6.00 $68
Jarislowsky Fraser Ltd 2017-03-31 14,546 $6.00 $87
Johnson Investment Counsel Inc 2017-03-31 40,535 $6.00 $243
J P Marvel Investment Advisors Llc 2017-03-31 4,950 $6.00 $29
Kdi Capital Partners Llc 2017-03-31 51,688 $6.00 $310
Keel Point Llc 2017-03-31 -290 $6.00 $-1
Kelly Lawrence W Associates Inc Ca 2017-03-31 -1,134 $6.00 $-6
Kemper Corp Master Retirement Trust 2017-03-31 -5,100 $6.00 $-30
Kentucky Retirement Systems 2017-03-31 3,950 $6.00 $23
Kentucky Retirement Systems Insurance Trust Fund 2017-03-31 -942 $6.00 $-5
Kidder Stephen W 2017-03-31 2,445 $6.00 $14
Kimelman Baird Llc 2017-03-31 170 $6.00 $1
Kingfisher Capital Llc 2017-03-31 1,469 $6.00 $8
Kovitz Investment Group Partners Llc 2017-03-31 1,313 $6.00 $7
Krilogy Financial Llc 2017-03-31 0 $6.00 $0
Ladenburg Thalmann Financial Services Inc 2017-03-31 17,540 $6.00 $105
Laurel Wealth Advisors Inc 2017-03-31 390 $6.00 $2
Lcnb Corp 2017-03-31 134 $6.00 $0
Lebenthal Asset Management Llc 2017-03-31 -4,548 $6.00 $-27
Lee Financial Corp 2017-03-31 -664 $6.00 $-3
Lenox Wealth Management Inc 2017-03-31 -472 $6.00 $-2
Level Four Advisory Services Llc 2017-03-31 -1,273 $6.00 $-7
Lincoln Capital Corp 2017-03-31 8,081 $6.00 $48
Long Road Investment Counsel Llc 2017-03-31 0 $6.00 $0
Loomis Sayles Co L P 2017-03-31 460,455 $6.00 $2,762
Lowe Brockenbrough Co Inc 2017-03-31 424 $6.00 $2
L S Advisors Inc 2017-03-31 9,020 $6.00 $54
Madison Investment Holdings Inc 2017-03-31 0 $6.00 $0
Maple Capital Management Inc 2017-03-31 -207 $6.00 $-1
Marco Investment Management Llc 2017-03-31 503 $6.00 $3
Marietta Investment Partners Llc 2017-03-31 0 $6.00 $0
Mariner Wealth Advisors Llc 2017-03-31 1,838 $6.00 $11
Martin Co Inc Tn 2017-03-31 240 $6.00 $1
Mason Street Advisors Llc 2017-03-31 37,392 $6.00 $224
Meadow Creek Investment Management Llc 2017-03-31 139,888 $6.00 $839
Menora Mivtachim Holdings Ltd 2017-03-31 -3,370 $6.00 $-20
M Holdings Securities Inc 2017-03-31 -678 $6.00 $-4
Mogy Joel R Investment Counsel Inc 2017-03-31 -2,200 $6.00 $-13
Moloney Securities Asset Management Llc 2017-03-31 1,517 $6.00 $9
Monroe Bank Trust Mi 2017-03-31 0 $6.00 $0
Mv Capital Management Inc 2017-03-31 -119 $6.00 $0
National Asset Management Inc 2017-03-31 -4,522 $6.00 $-27
Northern Oak Wealth Management Inc 2017-03-31 -710 $6.00 $-4
Northwestern Mutual Investment Management Company Llc 2017-03-31 180,239 $6.00 $1,081
Northwestern Mutual Wealth Management Co 2017-03-31 -3,095 $6.00 $-18
Notis-Mcconarty Edward 2017-03-31 1,500 $6.00 $9
Optimum Investment Advisors 2017-03-31 2,126 $6.00 $12
Orbimed Advisors Llc 2017-03-31 -245,400 $6.00 $-1,472
Otter Creek Advisors Llc 2017-03-31 97,352 $6.00 $584
Overbrook Management Corp 2017-03-31 615 $6.00 $3
Pacific Center For Financial Services 2017-03-31 370 $6.00 $2
Page Arthur B 2017-03-31 1,310 $6.00 $7
Paloma Partners Management Co 2017-03-31 -42,428 $6.00 $-254
Patriot Financial Group Insurance Agency Llc 2017-03-31 -287 $6.00 $-1
Perella Weinberg Partners Capital Management Lp 2017-03-31 -14,876 $6.00 $-89
Perigon Wealth Management Llc 2017-03-31 0 $6.00 $0
Piedmont Investment Advisors Llc 2017-03-31 360,508 $6.00 $2,163
Pinkerton Retirement Specialists Llc 2017-03-31 -2,531 $6.00 $-15
Pittenger Anderson Inc 2017-03-31 -1,343 $6.00 $-8
Plancorp Llc 2017-03-31 836 $6.00 $5
Polar Capital Llp 2017-03-31 -450,000 $6.00 $-2,700
Princeton Portfolio Strategies Group Llc 2017-03-31 -83 $6.00 $0
Proficio Capital Partners Llc 2017-03-31 1,197 $6.00 $7
Prospector Partners Llc 2017-03-31 -400 $6.00 $-2
Public Employees Retirement System Of Ohio 2017-03-31 -10,325 $6.00 $-61
Pura Vida Investments Llc 2017-03-31 155,000 $6.00 $930
Puzo Michael J 2017-03-31 2,100 $6.00 $12
Quest Investment Management Inc Or 2017-03-31 16,329 $6.00 $97
Raymond James Associates 2017-03-31 274,466 $6.00 $1,646
Rb Capital Management Llc 2017-03-31 -28 $6.00 $0
Rbf Capital Llc 2017-03-31 10,000 $6.00 $60
Redwood Investments Llc 2017-03-31 0 $6.00 $0
Rench Wealth Management Inc 2017-03-31 -556 $6.00 $-3
Reynders Mcveigh Capital Management Llc 2017-03-31 51,534 $6.00 $309
Riverhead Capital Management Llc 2017-03-31 9,120 $6.00 $54
River Wealth Advisors Llc 2017-03-31 -1,188 $6.00 $-7
Rodgers Brothers Inc 2017-03-31 -337 $6.00 $-2
Rothschild Asset Management Inc 2017-03-31 42,003 $6.00 $252
Roundview Capital Llc 2017-03-31 0 $6.00 $0
Salem Investment Counselors Inc 2017-03-31 11,021 $6.00 $66
Salzman Co Inc 2017-03-31 172,060 $6.00 $1,032
Samlyn Capital Llc 2017-03-31 641,100 $6.00 $3,846
Saturna Capital Corp 2017-03-31 -2,944 $6.00 $-17
Schnieders Capital Management Llc 2017-03-31 1,838 $6.00 $11
Schonfeld Strategic Advisors Llc 2017-03-31 -15,350 $6.00 $-92
Sciencast Management Lp 2017-03-31 23,060 $6.00 $138
Scotia Capital Inc 2017-03-31 43,433 $6.00 $260
Secor Capital Advisors Lp 2017-03-31 104,246 $6.00 $625
Segall Bryant Hamill Llc 2017-03-31 17,442 $6.00 $104
Sensato Investors Llc 2017-03-31 -225,200 $6.00 $-1,351
Senzar Asset Management Llc 2017-03-31 190,500 $6.00 $1,143
Sequoia Financial Advisors Llc 2017-03-31 5,201 $6.00 $31
Seven Eight Capital Lp 2017-03-31 -7,588 $6.00 $-45
Signaturefd Llc 2017-03-31 8,656 $6.00 $51
Silvercrest Asset Management Group Llc 2017-03-31 40,164 $6.00 $240
Sns Financial Group Llc 2017-03-31 2,641 $6.00 $15
Somerville Kurt F 2017-03-31 8,554 $6.00 $51
Sowell Financial Services Llc 2017-03-31 760 $6.00 $4
Squarepoint Ops Llc 2017-03-31 49,108 $6.00 $294
Srs Capital Advisors Inc 2017-03-31 0 $6.00 $0
Stadion Money Management Llc 2017-03-31 0 $6.00 $0
Sta Wealth Management Llc 2017-03-31 5,120 $6.00 $30
Steinberg Asset Management Llc 2017-03-31 -5,363 $6.00 $-32
Steinberg Global Asset Management 2017-03-31 5 $6.00 $0
Sterling Capital Management Llc 2017-03-31 -317,122 $6.00 $-1,902
Sterling Investment Advisors Ltd 2017-03-31 660 $6.00 $3
Sterneck Capital Management Llc 2017-03-31 -16,250 $6.00 $-97
Stifel Financial Corp 2017-03-31 131,318 $6.00 $787
Stonebridge Capital Advisors Llc 2017-03-31 5,282 $6.00 $31
Sva Plumb Wealth Management Llc 2017-03-31 -10,963 $6.00 $-65
Taurus Asset Management Llc 2017-03-31 0 $6.00 $0
Teachers Insurance Annuity Association Of America 2017-03-31 0 $6.00 $0
Thomas J Herzfeld Advisors Inc 2017-03-31 0 $6.00 $0
Tiverton Asset Management Llc 2017-03-31 12,671 $6.00 $76
Tortoise Investment Management Llc 2017-03-31 0 $6.00 $0
Two Sigma Securities Llc 2017-03-31 -6,003 $6.00 $-36
Tyers Asset Management Llc 2017-03-31 79,936 $6.00 $479
United Capital Financial Advisers Llc 2017-03-31 10,208 $6.00 $61
Vantage Financial Partners Ltd Inc 2017-03-31 -6,080 $6.00 $-36
Veritable L P 2017-03-31 11,985 $6.00 $71
Verition Fund Management Llc 2017-03-31 10,223 $6.00 $61
Vestor Capital Llc 2017-03-31 6,260 $6.00 $37
Voloridge Investment Management Llc 2017-03-31 -111,646 $6.00 $-669
Wall Street Access Asset Management Llc 2017-03-31 -6,400 $6.00 $-38
Waters Parkerson Co Llc 2017-03-31 22,708 $6.00 $136
Wayne Hummer Investments L L C 2017-03-31 20,597 $6.00 $123
Wealthsource Partners Llc 2017-03-31 5,169 $6.00 $31
Weatherly Asset Management L P 2017-03-31 -220 $6.00 $-1
Webster Bank N A 2017-03-31 266 $6.00 $1
Westport Asset Management Inc 2017-03-31 0 $6.00 $0
Westside Investment Management Inc 2017-03-31 1,800 $6.00 $10
Westwood Holdings Group Inc 2017-03-31 -19,889 $6.00 $-119
Whalerock Point Partners Llc 2017-03-31 -441 $6.00 $-2
Wimmer Associates 1 Llc 2017-03-31 1,843 $6.00 $11
Yorkbridge Wealth Partners Llc 2017-03-31 971 $6.00 $5
Zevin Asset Management Llc 2017-03-31 0 $6.00 $0
Zuckerman Investment Group Llc 2017-03-31 0 $6.00 $0